sensor_id;sensor_type;location;lat;lon;timestamp;P1;durP1;ratioP1;P2;durP2;ratioP2
40815;SDS011;26535;48.788;9.214;2023-04-25T05:03:10;4.75;;;1.85;;
40815;SDS011;26535;48.788;9.214;2023-04-25T05:05:39;4.68;;;2.30;;
40815;SDS011;26535;48.788;9.214;2023-04-25T05:08:28;5.85;;;2.33;;
40815;SDS011;26535;48.788;9.214;2023-04-25T05:11:12;3.75;;;2.20;;
40815;SDS011;26535;48.788;9.214;2023-04-25T05:13:54;5.38;;;2.58;;
40815;SDS011;26535;48.788;9.214;2023-04-25T05:16:40;4.63;;;2.40;;
40815;SDS011;26535;48.788;9.214;2023-04-25T05:19:34;3.63;;;2.10;;
40815;SDS011;26535;48.788;9.214;2023-04-25T05:22:14;4.25;;;1.98;;
40815;SDS011;26535;48.788;9.214;2023-04-25T05:25:09;4.32;;;2.30;;
40815;SDS011;26535;48.788;9.214;2023-04-25T05:28:04;4.50;;;2.00;;
40815;SDS011;26535;48.788;9.214;2023-04-25T05:30:39;7.15;;;2.17;;
40815;SDS011;26535;48.788;9.214;2023-04-25T05:33:09;3.95;;;1.98;;
40815;SDS011;26535;48.788;9.214;2023-04-25T05:35:36;4.05;;;2.15;;
40815;SDS011;26535;48.788;9.214;2023-04-25T05:38:02;3.40;;;1.90;;
40815;SDS011;26535;48.788;9.214;2023-04-25T05:40:48;4.47;;;2.10;;
40815;SDS011;26535;48.788;9.214;2023-04-25T05:43:37;3.35;;;1.98;;
40815;SDS011;26535;48.788;9.214;2023-04-25T05:46:19;3.65;;;1.88;;
40815;SDS011;26535;48.788;9.214;2023-04-25T05:49:04;3.55;;;2.20;;
40815;SDS011;26535;48.788;9.214;2023-04-25T05:51:49;5.78;;;2.20;;
40815;SDS011;26535;48.788;9.214;2023-04-25T05:54:40;3.65;;;2.10;;
40815;SDS011;26535;48.788;9.214;2023-04-25T05:57:06;4.25;;;2.30;;
40815;SDS011;26535;48.788;9.214;2023-04-25T05:59:32;3.63;;;1.70;;
40815;SDS011;26535;48.788;9.214;2023-04-25T06:01:58;3.30;;;1.98;;
40815;SDS011;26535;48.788;9.214;2023-04-25T06:04:24;3.67;;;2.15;;
40815;SDS011;26535;48.788;9.214;2023-04-25T06:06:50;3.33;;;2.00;;
40815;SDS011;26535;48.788;9.214;2023-04-25T06:09:16;3.95;;;2.25;;
40815;SDS011;26535;48.788;9.214;2023-04-25T06:11:41;2.78;;;1.70;;
40815;SDS011;26535;48.788;9.214;2023-04-25T06:14:08;4.05;;;1.75;;
40815;SDS011;26535;48.788;9.214;2023-04-25T06:16:38;3.85;;;1.60;;
40815;SDS011;26535;48.788;9.214;2023-04-25T06:19:04;4.25;;;1.70;;
40815;SDS011;26535;48.788;9.214;2023-04-25T06:21:30;3.00;;;1.40;;
40815;SDS011;26535;48.788;9.214;2023-04-25T06:23:57;3.92;;;1.52;;
40815;SDS011;26535;48.788;9.214;2023-04-25T06:26:23;2.33;;;1.30;;
40815;SDS011;26535;48.788;9.214;2023-04-25T06:28:49;2.83;;;1.70;;
40815;SDS011;26535;48.788;9.214;2023-04-25T06:31:14;5.90;;;1.67;;
40815;SDS011;26535;48.788;9.214;2023-04-25T06:33:42;4.00;;;1.38;;
40815;SDS011;26535;48.788;9.214;2023-04-25T06:36:07;4.00;;;1.45;;
40815;SDS011;26535;48.788;9.214;2023-04-25T06:38:34;2.30;;;1.52;;
40815;SDS011;26535;48.788;9.214;2023-04-25T06:41:00;2.38;;;1.40;;
40815;SDS011;26535;48.788;9.214;2023-04-25T06:43:29;2.58;;;1.52;;
40815;SDS011;26535;48.788;9.214;2023-04-25T06:46:27;4.30;;;1.60;;
40815;SDS011;26535;48.788;9.214;2023-04-25T06:48:56;2.70;;;1.63;;
40815;SDS011;26535;48.788;9.214;2023-04-25T06:51:22;4.20;;;1.60;;
40815;SDS011;26535;48.788;9.214;2023-04-25T06:53:51;2.50;;;1.65;;
40815;SDS011;26535;48.788;9.214;2023-04-25T06:56:25;4.15;;;1.90;;
40815;SDS011;26535;48.788;9.214;2023-04-25T06:58:58;3.67;;;1.60;;
40815;SDS011;26535;48.788;9.214;2023-04-25T07:01:31;3.17;;;1.80;;
40815;SDS011;26535;48.788;9.214;2023-04-25T07:03:58;2.75;;;1.60;;
40815;SDS011;26535;48.788;9.214;2023-04-25T07:06:24;2.30;;;1.50;;
40815;SDS011;26535;48.788;9.214;2023-04-25T07:08:51;2.78;;;1.63;;
40815;SDS011;26535;48.788;9.214;2023-04-25T07:11:17;2.55;;;1.40;;
40815;SDS011;26535;48.788;9.214;2023-04-25T07:13:43;2.67;;;1.52;;
40815;SDS011;26535;48.788;9.214;2023-04-25T07:16:09;2.50;;;1.50;;
40815;SDS011;26535;48.788;9.214;2023-04-25T07:18:35;3.35;;;1.80;;
40815;SDS011;26535;48.788;9.214;2023-04-25T07:21:02;3.78;;;2.10;;
40815;SDS011;26535;48.788;9.214;2023-04-25T07:23:28;2.90;;;2.03;;
40815;SDS011;26535;48.788;9.214;2023-04-25T07:25:54;4.25;;;2.15;;
40815;SDS011;26535;48.788;9.214;2023-04-25T07:28:23;3.72;;;2.35;;
40815;SDS011;26535;48.788;9.214;2023-04-25T07:30:49;3.65;;;2.40;;
40815;SDS011;26535;48.788;9.214;2023-04-25T07:33:15;3.42;;;2.30;;
40815;SDS011;26535;48.788;9.214;2023-04-25T07:35:40;4.18;;;2.47;;
40815;SDS011;26535;48.788;9.214;2023-04-25T07:38:06;4.28;;;2.80;;
40815;SDS011;26535;48.788;9.214;2023-04-25T07:40:33;4.88;;;2.55;;
40815;SDS011;26535;48.788;9.214;2023-04-25T07:43:04;4.38;;;2.90;;
40815;SDS011;26535;48.788;9.214;2023-04-25T07:45:36;4.68;;;2.70;;
40815;SDS011;26535;48.788;9.214;2023-04-25T07:48:02;5.57;;;2.97;;
40815;SDS011;26535;48.788;9.214;2023-04-25T07:50:30;4.90;;;2.92;;
40815;SDS011;26535;48.788;9.214;2023-04-25T07:52:56;4.65;;;2.80;;
40815;SDS011;26535;48.788;9.214;2023-04-25T07:55:28;5.45;;;3.40;;
40815;SDS011;26535;48.788;9.214;2023-04-25T07:58:02;4.80;;;2.92;;
40815;SDS011;26535;48.788;9.214;2023-04-25T08:00:30;4.50;;;2.92;;
40815;SDS011;26535;48.788;9.214;2023-04-25T08:03:16;7.15;;;3.53;;
40815;SDS011;26535;48.788;9.214;2023-04-25T08:05:42;5.15;;;3.28;;
40815;SDS011;26535;48.788;9.214;2023-04-25T08:08:12;6.43;;;3.03;;
40815;SDS011;26535;48.788;9.214;2023-04-25T08:10:37;6.20;;;3.38;;
40815;SDS011;26535;48.788;9.214;2023-04-25T08:13:03;7.97;;;3.50;;
40815;SDS011;26535;48.788;9.214;2023-04-25T08:15:29;4.75;;;2.95;;
40815;SDS011;26535;48.788;9.214;2023-04-25T08:17:55;4.15;;;3.03;;
40815;SDS011;26535;48.788;9.214;2023-04-25T08:20:21;5.72;;;3.00;;
40815;SDS011;26535;48.788;9.214;2023-04-25T08:22:48;8.90;;;3.85;;
40815;SDS011;26535;48.788;9.214;2023-04-25T08:25:41;4.57;;;3.17;;
40815;SDS011;26535;48.788;9.214;2023-04-25T08:28:09;6.18;;;3.97;;
40815;SDS011;26535;48.788;9.214;2023-04-25T08:30:36;4.40;;;3.20;;
40815;SDS011;26535;48.788;9.214;2023-04-25T08:33:07;6.03;;;3.35;;
40815;SDS011;26535;48.788;9.214;2023-04-25T08:35:57;4.88;;;3.00;;
40815;SDS011;26535;48.788;9.214;2023-04-25T08:38:24;5.18;;;3.60;;
40815;SDS011;26535;48.788;9.214;2023-04-25T08:40:51;5.43;;;3.67;;
40815;SDS011;26535;48.788;9.214;2023-04-25T08:43:19;5.05;;;3.17;;
40815;SDS011;26535;48.788;9.214;2023-04-25T08:45:46;6.15;;;3.20;;
40815;SDS011;26535;48.788;9.214;2023-04-25T08:48:38;6.07;;;3.75;;
40815;SDS011;26535;48.788;9.214;2023-04-25T08:51:06;5.15;;;3.10;;
40815;SDS011;26535;48.788;9.214;2023-04-25T08:53:33;6.93;;;3.90;;
40815;SDS011;26535;48.788;9.214;2023-04-25T08:56:02;4.72;;;3.47;;
40815;SDS011;26535;48.788;9.214;2023-04-25T08:58:33;4.68;;;3.05;;
40815;SDS011;26535;48.788;9.214;2023-04-25T09:00:59;4.88;;;3.47;;
40815;SDS011;26535;48.788;9.214;2023-04-25T09:03:27;6.03;;;3.33;;
40815;SDS011;26535;48.788;9.214;2023-04-25T09:05:53;6.07;;;3.33;;
40815;SDS011;26535;48.788;9.214;2023-04-25T09:08:20;4.88;;;3.35;;
40815;SDS011;26535;48.788;9.214;2023-04-25T09:10:47;5.43;;;3.50;;
40815;SDS011;26535;48.788;9.214;2023-04-25T09:13:13;4.53;;;2.97;;
40815;SDS011;26535;48.788;9.214;2023-04-25T09:15:58;5.38;;;2.97;;
40815;SDS011;26535;48.788;9.214;2023-04-25T09:18:38;4.93;;;3.53;;
40815;SDS011;26535;48.788;9.214;2023-04-25T09:21:05;6.03;;;3.42;;
40815;SDS011;26535;48.788;9.214;2023-04-25T09:26:17;6.03;;;3.63;;
40815;SDS011;26535;48.788;9.214;2023-04-25T09:28:44;7.43;;;3.35;;
40815;SDS011;26535;48.788;9.214;2023-04-25T09:31:23;6.47;;;3.63;;
40815;SDS011;26535;48.788;9.214;2023-04-25T09:33:52;7.03;;;3.63;;
40815;SDS011;26535;48.788;9.214;2023-04-25T09:36:27;5.95;;;3.35;;
40815;SDS011;26535;48.788;9.214;2023-04-25T09:39:00;6.05;;;3.72;;
40815;SDS011;26535;48.788;9.214;2023-04-25T09:41:32;7.80;;;3.05;;
40815;SDS011;26535;48.788;9.214;2023-04-25T09:44:03;5.15;;;3.33;;
40815;SDS011;26535;48.788;9.214;2023-04-25T09:46:34;6.32;;;3.47;;
40815;SDS011;26535;48.788;9.214;2023-04-25T09:49:07;5.22;;;3.17;;
40815;SDS011;26535;48.788;9.214;2023-04-25T09:51:59;5.40;;;3.15;;
40815;SDS011;26535;48.788;9.214;2023-04-25T09:54:34;6.18;;;3.38;;
40815;SDS011;26535;48.788;9.214;2023-04-25T09:59:54;3.88;;;2.13;;
40815;SDS011;26535;48.788;9.214;2023-04-25T10:02:25;3.38;;;2.20;;
40815;SDS011;26535;48.788;9.214;2023-04-25T10:04:55;3.72;;;2.00;;
40815;SDS011;26535;48.788;9.214;2023-04-25T10:07:26;2.58;;;1.33;;
40815;SDS011;26535;48.788;9.214;2023-04-25T10:09:59;3.80;;;1.63;;
40815;SDS011;26535;48.788;9.214;2023-04-25T10:12:28;2.72;;;1.55;;
40815;SDS011;26535;48.788;9.214;2023-04-25T10:14:54;2.60;;;1.20;;
40815;SDS011;26535;48.788;9.214;2023-04-25T10:17:21;3.03;;;1.50;;
40815;SDS011;26535;48.788;9.214;2023-04-25T10:19:47;3.25;;;1.50;;
40815;SDS011;26535;48.788;9.214;2023-04-25T10:22:14;5.13;;;2.00;;
40815;SDS011;26535;48.788;9.214;2023-04-25T10:25:02;3.30;;;1.60;;
40815;SDS011;26535;48.788;9.214;2023-04-25T10:27:29;2.88;;;1.90;;
40815;SDS011;26535;48.788;9.214;2023-04-25T10:30:05;4.07;;;2.22;;
40815;SDS011;26535;48.788;9.214;2023-04-25T10:32:36;3.90;;;2.10;;
40815;SDS011;26535;48.788;9.214;2023-04-25T10:35:12;5.13;;;2.40;;
40815;SDS011;26535;48.788;9.214;2023-04-25T10:40:35;3.42;;;2.35;;
40815;SDS011;26535;48.788;9.214;2023-04-25T10:45:59;3.17;;;1.70;;
40815;SDS011;26535;48.788;9.214;2023-04-25T10:48:31;2.60;;;1.45;;
40815;SDS011;26535;48.788;9.214;2023-04-25T10:51:06;3.13;;;1.50;;
40815;SDS011;26535;48.788;9.214;2023-04-25T10:53:36;2.30;;;1.52;;
40815;SDS011;26535;48.788;9.214;2023-04-25T10:56:12;3.67;;;2.25;;
40815;SDS011;26535;48.788;9.214;2023-04-25T10:58:43;5.45;;;2.58;;
40815;SDS011;26535;48.788;9.214;2023-04-25T11:01:13;4.72;;;3.25;;
40815;SDS011;26535;48.788;9.214;2023-04-25T11:03:40;5.40;;;2.97;;
40815;SDS011;26535;48.788;9.214;2023-04-25T11:08:51;2.72;;;1.58;;
40815;SDS011;26535;48.788;9.214;2023-04-25T11:11:17;3.33;;;1.35;;
40815;SDS011;26535;48.788;9.214;2023-04-25T11:13:44;2.20;;;1.42;;
40815;SDS011;26535;48.788;9.214;2023-04-25T11:16:13;3.75;;;1.63;;
40815;SDS011;26535;48.788;9.214;2023-04-25T11:18:40;3.83;;;1.60;;
40815;SDS011;26535;48.788;9.214;2023-04-25T11:21:09;3.38;;;1.23;;
40815;SDS011;26535;48.788;9.214;2023-04-25T11:23:36;3.95;;;1.50;;
40815;SDS011;26535;48.788;9.214;2023-04-25T11:26:05;5.32;;;1.77;;
40815;SDS011;26535;48.788;9.214;2023-04-25T11:28:30;3.10;;;1.67;;
40815;SDS011;26535;48.788;9.214;2023-04-25T11:30:56;2.75;;;1.75;;
40815;SDS011;26535;48.788;9.214;2023-04-25T11:33:22;2.85;;;1.52;;
40815;SDS011;26535;48.788;9.214;2023-04-25T11:35:50;3.73;;;1.93;;
40815;SDS011;26535;48.788;9.214;2023-04-25T11:40:44;3.15;;;2.15;;
40815;SDS011;26535;48.788;9.214;2023-04-25T11:43:14;3.70;;;2.00;;
40815;SDS011;26535;48.788;9.214;2023-04-25T11:45:39;4.00;;;2.03;;
40815;SDS011;26535;48.788;9.214;2023-04-25T11:48:05;2.72;;;1.98;;
40815;SDS011;26535;48.788;9.214;2023-04-25T11:50:31;3.70;;;1.75;;
40815;SDS011;26535;48.788;9.214;2023-04-25T11:52:56;5.03;;;2.10;;
40815;SDS011;26535;48.788;9.214;2023-04-25T11:55:22;2.67;;;1.50;;
40815;SDS011;26535;48.788;9.214;2023-04-25T11:57:48;4.22;;;1.67;;
40815;SDS011;26535;48.788;9.214;2023-04-25T12:00:18;2.95;;;1.80;;
40815;SDS011;26535;48.788;9.214;2023-04-25T12:02:46;2.65;;;1.63;;
40815;SDS011;26535;48.788;9.214;2023-04-25T12:05:16;3.00;;;2.08;;
40815;SDS011;26535;48.788;9.214;2023-04-25T12:07:41;4.80;;;2.40;;
40815;SDS011;26535;48.788;9.214;2023-04-25T12:10:08;3.78;;;2.30;;
40815;SDS011;26535;48.788;9.214;2023-04-25T12:12:36;4.57;;;2.55;;
40815;SDS011;26535;48.788;9.214;2023-04-25T12:15:13;3.70;;;2.40;;
40815;SDS011;26535;48.788;9.214;2023-04-25T12:17:44;4.82;;;2.47;;
40815;SDS011;26535;48.788;9.214;2023-04-25T12:20:15;4.88;;;2.85;;
40815;SDS011;26535;48.788;9.214;2023-04-25T12:22:46;5.07;;;3.10;;
40815;SDS011;26535;48.788;9.214;2023-04-25T12:25:34;5.95;;;3.35;;
40815;SDS011;26535;48.788;9.214;2023-04-25T12:28:09;6.53;;;3.10;;
40815;SDS011;26535;48.788;9.214;2023-04-25T12:33:39;6.35;;;3.50;;
40815;SDS011;26535;48.788;9.214;2023-04-25T12:36:07;5.38;;;3.30;;
40815;SDS011;26535;48.788;9.214;2023-04-25T12:38:42;4.10;;;3.00;;
40815;SDS011;26535;48.788;9.214;2023-04-25T12:41:08;7.13;;;3.25;;
40815;SDS011;26535;48.788;9.214;2023-04-25T12:43:34;7.22;;;3.85;;
40815;SDS011;26535;48.788;9.214;2023-04-25T12:46:00;6.85;;;3.90;;
40815;SDS011;26535;48.788;9.214;2023-04-25T12:48:26;6.07;;;4.07;;
40815;SDS011;26535;48.788;9.214;2023-04-25T12:50:52;5.40;;;3.40;;
40815;SDS011;26535;48.788;9.214;2023-04-25T12:53:18;6.10;;;3.15;;
40815;SDS011;26535;48.788;9.214;2023-04-25T12:55:45;5.45;;;3.40;;
40815;SDS011;26535;48.788;9.214;2023-04-25T12:58:12;4.78;;;3.22;;
40815;SDS011;26535;48.788;9.214;2023-04-25T13:00:41;4.72;;;3.17;;
40815;SDS011;26535;48.788;9.214;2023-04-25T13:03:07;5.20;;;3.45;;
40815;SDS011;26535;48.788;9.214;2023-04-25T13:05:34;4.13;;;2.67;;
40815;SDS011;26535;48.788;9.214;2023-04-25T13:08:00;4.75;;;3.13;;
40815;SDS011;26535;48.788;9.214;2023-04-25T13:10:26;6.60;;;3.15;;
40815;SDS011;26535;48.788;9.214;2023-04-25T13:12:52;5.07;;;3.22;;
40815;SDS011;26535;48.788;9.214;2023-04-25T13:15:17;5.97;;;2.92;;
40815;SDS011;26535;48.788;9.214;2023-04-25T13:17:43;4.55;;;3.10;;
40815;SDS011;26535;48.788;9.214;2023-04-25T13:20:09;5.45;;;3.22;;
40815;SDS011;26535;48.788;9.214;2023-04-25T13:22:35;5.28;;;2.85;;
40815;SDS011;26535;48.788;9.214;2023-04-25T13:25:04;6.05;;;3.75;;
40815;SDS011;26535;48.788;9.214;2023-04-25T13:27:32;5.53;;;3.20;;
40815;SDS011;26535;48.788;9.214;2023-04-25T13:30:02;5.68;;;3.58;;
40815;SDS011;26535;48.788;9.214;2023-04-25T13:32:35;5.53;;;3.53;;
40815;SDS011;26535;48.788;9.214;2023-04-25T13:35:03;8.05;;;3.40;;
40815;SDS011;26535;48.788;9.214;2023-04-25T13:37:33;7.93;;;4.20;;
40815;SDS011;26535;48.788;9.214;2023-04-25T13:40:00;6.97;;;4.18;;
40815;SDS011;26535;48.788;9.214;2023-04-25T13:42:30;7.07;;;3.88;;
40815;SDS011;26535;48.788;9.214;2023-04-25T13:44:56;5.07;;;3.45;;
40815;SDS011;26535;48.788;9.214;2023-04-25T13:47:22;5.57;;;4.10;;
40815;SDS011;26535;48.788;9.214;2023-04-25T13:49:48;5.28;;;3.78;;
40815;SDS011;26535;48.788;9.214;2023-04-25T13:52:15;7.82;;;4.03;;
40815;SDS011;26535;48.788;9.214;2023-04-25T13:54:41;7.18;;;4.65;;
40815;SDS011;26535;48.788;9.214;2023-04-25T13:57:06;8.52;;;5.10;;
40815;SDS011;26535;48.788;9.214;2023-04-25T13:59:32;6.65;;;4.72;;
40815;SDS011;26535;48.788;9.214;2023-04-25T14:01:58;8.63;;;5.30;;
40815;SDS011;26535;48.788;9.214;2023-04-25T14:04:24;8.88;;;5.32;;
40815;SDS011;26535;48.788;9.214;2023-04-25T14:06:50;8.80;;;4.57;;
40815;SDS011;26535;48.788;9.214;2023-04-25T14:09:16;7.63;;;4.28;;
40815;SDS011;26535;48.788;9.214;2023-04-25T14:11:43;6.93;;;5.03;;
40815;SDS011;26535;48.788;9.214;2023-04-25T14:14:08;6.60;;;4.72;;
40815;SDS011;26535;48.788;9.214;2023-04-25T14:16:34;9.48;;;4.55;;
40815;SDS011;26535;48.788;9.214;2023-04-25T14:19:00;8.25;;;4.57;;
40815;SDS011;26535;48.788;9.214;2023-04-25T14:21:26;6.55;;;4.63;;
40815;SDS011;26535;48.788;9.214;2023-04-25T14:23:57;7.85;;;4.07;;
40815;SDS011;26535;48.788;9.214;2023-04-25T14:26:23;8.32;;;4.15;;
40815;SDS011;26535;48.788;9.214;2023-04-25T14:28:49;5.72;;;3.53;;
40815;SDS011;26535;48.788;9.214;2023-04-25T14:31:15;5.72;;;3.35;;
40815;SDS011;26535;48.788;9.214;2023-04-25T14:33:41;5.60;;;3.90;;
40815;SDS011;26535;48.788;9.214;2023-04-25T14:36:08;5.47;;;3.08;;
40815;SDS011;26535;48.788;9.214;2023-04-25T14:38:34;4.25;;;3.03;;
40815;SDS011;26535;48.788;9.214;2023-04-25T14:41:00;4.15;;;2.70;;
40815;SDS011;26535;48.788;9.214;2023-04-25T14:43:26;4.45;;;2.65;;
40815;SDS011;26535;48.788;9.214;2023-04-25T14:45:51;5.70;;;3.10;;
40815;SDS011;26535;48.788;9.214;2023-04-25T14:48:17;3.95;;;2.50;;
40815;SDS011;26535;48.788;9.214;2023-04-25T14:50:44;3.85;;;2.33;;
40815;SDS011;26535;48.788;9.214;2023-04-25T14:53:11;4.05;;;2.67;;
40815;SDS011;26535;48.788;9.214;2023-04-25T14:55:37;3.70;;;2.60;;
40815;SDS011;26535;48.788;9.214;2023-04-25T14:58:03;4.85;;;3.10;;
40815;SDS011;26535;48.788;9.214;2023-04-25T15:00:29;4.97;;;3.10;;
40815;SDS011;26535;48.788;9.214;2023-04-25T15:02:56;4.35;;;2.70;;
40815;SDS011;26535;48.788;9.214;2023-04-25T15:05:23;4.57;;;3.10;;
40815;SDS011;26535;48.788;9.214;2023-04-25T15:07:48;4.57;;;2.92;;
40815;SDS011;26535;48.788;9.214;2023-04-25T15:10:14;5.45;;;3.03;;
40815;SDS011;26535;48.788;9.214;2023-04-25T15:12:42;5.28;;;3.30;;
40815;SDS011;26535;48.788;9.214;2023-04-25T15:15:09;5.63;;;3.15;;
40815;SDS011;26535;48.788;9.214;2023-04-25T15:17:42;6.32;;;3.63;;
40815;SDS011;26535;48.788;9.214;2023-04-25T15:20:09;6.85;;;3.80;;
40815;SDS011;26535;48.788;9.214;2023-04-25T15:22:36;4.35;;;2.80;;
40815;SDS011;26535;48.788;9.214;2023-04-25T15:25:03;5.65;;;3.10;;
40815;SDS011;26535;48.788;9.214;2023-04-25T15:27:29;5.32;;;3.10;;
40815;SDS011;26535;48.788;9.214;2023-04-25T15:29:55;6.35;;;3.47;;
40815;SDS011;26535;48.788;9.214;2023-04-25T15:32:21;4.20;;;3.03;;
40815;SDS011;26535;48.788;9.214;2023-04-25T15:34:48;4.90;;;2.85;;
40815;SDS011;26535;48.788;9.214;2023-04-25T15:37:14;4.88;;;2.60;;
40815;SDS011;26535;48.788;9.214;2023-04-25T15:39:40;5.45;;;2.42;;
40815;SDS011;26535;48.788;9.214;2023-04-25T15:42:06;6.40;;;2.70;;
40815;SDS011;26535;48.788;9.214;2023-04-25T15:44:32;5.45;;;3.30;;
40815;SDS011;26535;48.788;9.214;2023-04-25T15:46:58;6.60;;;3.25;;
40815;SDS011;26535;48.788;9.214;2023-04-25T15:49:24;5.38;;;3.00;;
40815;SDS011;26535;48.788;9.214;2023-04-25T15:51:50;3.67;;;2.65;;
40815;SDS011;26535;48.788;9.214;2023-04-25T15:54:16;5.30;;;2.88;;
40815;SDS011;26535;48.788;9.214;2023-04-25T15:56:42;5.35;;;2.83;;
40815;SDS011;26535;48.788;9.214;2023-04-25T15:59:09;4.70;;;2.95;;
40815;SDS011;26535;48.788;9.214;2023-04-25T16:01:35;4.55;;;3.20;;
40815;SDS011;26535;48.788;9.214;2023-04-25T16:04:02;7.05;;;3.58;;
40815;SDS011;26535;48.788;9.214;2023-04-25T16:06:28;7.90;;;3.50;;
40815;SDS011;26535;48.788;9.214;2023-04-25T16:08:54;7.13;;;3.70;;
40815;SDS011;26535;48.788;9.214;2023-04-25T16:11:21;6.75;;;3.85;;
40815;SDS011;26535;48.788;9.214;2023-04-25T16:13:46;6.30;;;3.78;;
40815;SDS011;26535;48.788;9.214;2023-04-25T16:16:13;7.07;;;3.53;;
40815;SDS011;26535;48.788;9.214;2023-04-25T16:18:39;6.38;;;3.65;;
40815;SDS011;26535;48.788;9.214;2023-04-25T16:21:05;6.40;;;4.07;;
40815;SDS011;26535;48.788;9.214;2023-04-25T16:23:31;6.55;;;4.00;;
40815;SDS011;26535;48.788;9.214;2023-04-25T16:25:57;5.93;;;3.78;;
40815;SDS011;26535;48.788;9.214;2023-04-25T16:28:23;6.28;;;3.40;;
40815;SDS011;26535;48.788;9.214;2023-04-25T16:30:49;6.97;;;3.45;;
40815;SDS011;26535;48.788;9.214;2023-04-25T16:33:15;7.55;;;4.07;;
40815;SDS011;26535;48.788;9.214;2023-04-25T16:35:40;6.90;;;3.45;;
40815;SDS011;26535;48.788;9.214;2023-04-25T16:38:06;8.18;;;3.65;;
40815;SDS011;26535;48.788;9.214;2023-04-25T16:40:32;5.70;;;3.50;;
40815;SDS011;26535;48.788;9.214;2023-04-25T16:42:57;6.63;;;3.83;;
40815;SDS011;26535;48.788;9.214;2023-04-25T16:45:23;8.52;;;4.00;;
40815;SDS011;26535;48.788;9.214;2023-04-25T16:47:50;6.35;;;3.65;;
40815;SDS011;26535;48.788;9.214;2023-04-25T16:50:17;6.68;;;3.42;;
40815;SDS011;26535;48.788;9.214;2023-04-25T16:52:44;8.60;;;4.53;;
40815;SDS011;26535;48.788;9.214;2023-04-25T16:55:09;7.50;;;4.45;;
40815;SDS011;26535;48.788;9.214;2023-04-25T16:57:35;6.63;;;3.70;;
40815;SDS011;26535;48.788;9.214;2023-04-25T17:00:02;7.43;;;4.03;;
40815;SDS011;26535;48.788;9.214;2023-04-25T17:02:29;8.38;;;4.47;;
40815;SDS011;26535;48.788;9.214;2023-04-25T17:04:54;5.53;;;3.90;;
40815;SDS011;26535;48.788;9.214;2023-04-25T17:07:20;5.72;;;3.67;;
40815;SDS011;26535;48.788;9.214;2023-04-25T17:09:48;7.10;;;4.57;;
40815;SDS011;26535;48.788;9.214;2023-04-25T17:12:15;6.95;;;4.30;;
40815;SDS011;26535;48.788;9.214;2023-04-25T17:14:41;7.20;;;4.50;;
40815;SDS011;26535;48.788;9.214;2023-04-25T17:17:08;5.90;;;4.15;;
40815;SDS011;26535;48.788;9.214;2023-04-25T17:19:33;6.90;;;4.00;;
40815;SDS011;26535;48.788;9.214;2023-04-25T17:21:59;6.93;;;4.05;;
40815;SDS011;26535;48.788;9.214;2023-04-25T17:24:25;7.20;;;4.30;;
40815;SDS011;26535;48.788;9.214;2023-04-25T17:26:51;8.45;;;4.30;;
40815;SDS011;26535;48.788;9.214;2023-04-25T17:29:16;8.88;;;4.60;;
40815;SDS011;26535;48.788;9.214;2023-04-25T17:31:43;8.30;;;4.30;;
40815;SDS011;26535;48.788;9.214;2023-04-25T17:34:09;10.60;;;4.25;;
40815;SDS011;26535;48.788;9.214;2023-04-25T17:36:36;6.70;;;4.40;;
40815;SDS011;26535;48.788;9.214;2023-04-25T17:39:02;8.23;;;4.10;;
40815;SDS011;26535;48.788;9.214;2023-04-25T17:41:30;8.57;;;4.82;;
40815;SDS011;26535;48.788;9.214;2023-04-25T17:43:56;6.47;;;4.72;;
40815;SDS011;26535;48.788;9.214;2023-04-25T17:46:21;8.10;;;4.70;;
40815;SDS011;26535;48.788;9.214;2023-04-25T17:48:47;8.82;;;4.70;;
40815;SDS011;26535;48.788;9.214;2023-04-25T17:51:14;10.73;;;5.38;;
40815;SDS011;26535;48.788;9.214;2023-04-25T17:53:39;6.95;;;3.92;;
40815;SDS011;26535;48.788;9.214;2023-04-25T17:56:05;6.07;;;4.20;;
40815;SDS011;26535;48.788;9.214;2023-04-25T17:58:32;7.25;;;4.10;;
40815;SDS011;26535;48.788;9.214;2023-04-25T18:00:58;6.50;;;3.90;;
40815;SDS011;26535;48.788;9.214;2023-04-25T18:03:24;6.75;;;3.40;;
40815;SDS011;26535;48.788;9.214;2023-04-25T18:05:50;4.93;;;3.17;;
40815;SDS011;26535;48.788;9.214;2023-04-25T18:08:15;5.97;;;3.67;;
40815;SDS011;26535;48.788;9.214;2023-04-25T18:10:41;5.30;;;3.28;;
40815;SDS011;26535;48.788;9.214;2023-04-25T18:13:07;5.07;;;3.40;;
40815;SDS011;26535;48.788;9.214;2023-04-25T18:15:33;6.55;;;3.97;;
40815;SDS011;26535;48.788;9.214;2023-04-25T18:17:59;11.55;;;4.95;;
40815;SDS011;26535;48.788;9.214;2023-04-25T18:20:27;9.95;;;5.72;;
40815;SDS011;26535;48.788;9.214;2023-04-25T18:22:53;9.60;;;5.22;;
40815;SDS011;26535;48.788;9.214;2023-04-25T18:25:18;9.35;;;5.65;;
40815;SDS011;26535;48.788;9.214;2023-04-25T18:27:44;9.60;;;5.70;;
40815;SDS011;26535;48.788;9.214;2023-04-25T18:30:11;12.40;;;6.15;;
40815;SDS011;26535;48.788;9.214;2023-04-25T18:32:37;10.30;;;5.78;;
40815;SDS011;26535;48.788;9.214;2023-04-25T18:35:03;9.35;;;5.70;;
40815;SDS011;26535;48.788;9.214;2023-04-25T18:37:30;10.20;;;5.90;;
40815;SDS011;26535;48.788;9.214;2023-04-25T18:39:55;12.35;;;6.18;;
40815;SDS011;26535;48.788;9.214;2023-04-25T18:42:21;10.20;;;5.72;;
40815;SDS011;26535;48.788;9.214;2023-04-25T18:44:47;11.20;;;5.93;;
40815;SDS011;26535;48.788;9.214;2023-04-25T18:47:13;10.40;;;6.18;;
40815;SDS011;26535;48.788;9.214;2023-04-25T18:49:38;8.80;;;6.10;;
40815;SDS011;26535;48.788;9.214;2023-04-25T18:52:05;9.23;;;6.28;;
40815;SDS011;26535;48.788;9.214;2023-04-25T18:54:34;11.68;;;7.00;;
40815;SDS011;26535;48.788;9.214;2023-04-25T18:57:01;10.88;;;6.97;;
40815;SDS011;26535;48.788;9.214;2023-04-25T18:59:27;12.35;;;7.15;;
40815;SDS011;26535;48.788;9.214;2023-04-25T19:01:53;10.95;;;6.68;;
40815;SDS011;26535;48.788;9.214;2023-04-25T19:04:18;11.32;;;7.05;;
40815;SDS011;26535;48.788;9.214;2023-04-25T19:06:45;11.27;;;6.55;;
40815;SDS011;26535;48.788;9.214;2023-04-25T19:09:13;11.05;;;6.63;;
40815;SDS011;26535;48.788;9.214;2023-04-25T19:11:38;10.98;;;6.35;;
40815;SDS011;26535;48.788;9.214;2023-04-25T19:14:04;11.95;;;7.32;;
40815;SDS011;26535;48.788;9.214;2023-04-25T19:16:30;8.73;;;5.95;;
40815;SDS011;26535;48.788;9.214;2023-04-25T19:19:02;9.82;;;6.35;;
40815;SDS011;26535;48.788;9.214;2023-04-25T19:21:29;8.35;;;5.72;;
40815;SDS011;26535;48.788;9.214;2023-04-25T19:23:57;10.20;;;6.53;;
40815;SDS011;26535;48.788;9.214;2023-04-25T19:26:23;12.98;;;5.97;;
40815;SDS011;26535;48.788;9.214;2023-04-25T19:29:08;12.70;;;6.95;;
40815;SDS011;26535;48.788;9.214;2023-04-25T19:31:36;8.88;;;5.55;;
40815;SDS011;26535;48.788;9.214;2023-04-25T19:34:03;8.90;;;5.25;;
40815;SDS011;26535;48.788;9.214;2023-04-25T19:36:29;8.70;;;5.03;;
40815;SDS011;26535;48.788;9.214;2023-04-25T19:38:55;11.32;;;5.55;;
40815;SDS011;26535;48.788;9.214;2023-04-25T19:41:27;9.18;;;5.35;;
40815;SDS011;26535;48.788;9.214;2023-04-25T19:43:53;10.00;;;5.90;;
40815;SDS011;26535;48.788;9.214;2023-04-25T19:46:19;9.20;;;5.88;;
40815;SDS011;26535;48.788;9.214;2023-04-25T19:48:44;13.43;;;6.32;;
40815;SDS011;26535;48.788;9.214;2023-04-25T19:51:11;8.68;;;5.55;;
40815;SDS011;26535;48.788;9.214;2023-04-25T19:53:37;11.02;;;5.68;;
40815;SDS011;26535;48.788;9.214;2023-04-25T19:56:03;8.02;;;5.35;;
40815;SDS011;26535;48.788;9.214;2023-04-25T19:58:29;8.55;;;5.68;;
40815;SDS011;26535;48.788;9.214;2023-04-25T20:00:55;10.55;;;5.35;;
40815;SDS011;26535;48.788;9.214;2023-04-25T20:03:24;11.57;;;5.78;;
40815;SDS011;26535;48.788;9.214;2023-04-25T20:05:51;10.98;;;5.78;;
40815;SDS011;26535;48.788;9.214;2023-04-25T20:08:17;10.07;;;6.15;;
40815;SDS011;26535;48.788;9.214;2023-04-25T20:10:43;9.95;;;6.47;;
40815;SDS011;26535;48.788;9.214;2023-04-25T20:13:09;9.75;;;5.90;;
40815;SDS011;26535;48.788;9.214;2023-04-25T20:15:35;11.40;;;5.65;;